Time;durP1;ratioP1;P1;durP2;ratioP2;P2;SDS_P1;SDS_P2;PMS_P1;PMS_P2;Temp;Humidity;BMP_temperature;BMP_pressure;BME280_temperature;BME280_humidity;BME280_pressure;Samples;Min_cycle;Max_cycle;Signal;HPM_P1;HPM_P2
2022/06/15 00:01:18;;;;;;;6.08;1.42;;;;;;;16.98;45.62;100398.55;1723812;83;21431;-58
2022/06/15 00:03:47;;;;;;;4.17;1.50;;;;;;;16.99;45.71;100400.23;1723590;82;21066;-58
2022/06/15 00:06:21;;;;;;;3.92;1.75;;;;;;;16.98;45.82;100401.32;1723524;82;21063;-58
2022/06/15 00:08:52;;;;;;;3.00;1.35;;;;;;;16.98;45.86;100397.17;1723582;83;21094;-59
2022/06/15 00:11:31;;;;;;;4.15;1.40;;;;;;;16.96;45.92;100395.19;1723549;83;21084;-58
2022/06/15 00:14:09;;;;;;;4.37;1.60;;;;;;;16.95;45.97;100392.95;1723667;82;21019;-57
2022/06/15 00:16:40;;;;;;;5.67;1.52;;;;;;;16.95;45.98;100389.34;1723479;83;21459;-57
2022/06/15 00:19:11;;;;;;;3.17;1.40;;;;;;;16.91;46.01;100388.98;1723595;83;21043;-58
2022/06/15 00:21:40;;;;;;;3.85;1.60;;;;;;;16.91;46.11;100386.22;1723771;83;21019;-57
2022/06/15 00:24:09;;;;;;;5.53;1.40;;;;;;;16.90;46.18;100391.95;1723858;83;21042;-57
2022/06/15 00:26:40;;;;;;;3.95;1.60;;;;;;;16.87;46.32;100397.97;1723543;83;21560;-58
2022/06/15 00:29:09;;;;;;;2.55;1.20;;;;;;;16.80;46.49;100397.55;1723522;82;21035;-58
2022/06/15 00:31:38;;;;;;;2.80;1.40;;;;;;;16.78;46.65;100401.09;1723594;83;21537;-58
2022/06/15 00:34:07;;;;;;;3.27;1.55;;;;;;;16.73;46.72;100395.97;1723636;82;21070;-56
2022/06/15 00:36:36;;;;;;;3.75;1.47;;;;;;;16.71;46.90;100402.28;1708789;83;21051;-58
2022/06/15 00:39:05;;;;;;;2.55;1.22;;;;;;;16.66;46.96;100390.55;1703117;84;21440;-58
2022/06/15 00:41:37;;;;;;;3.20;1.02;;;;;;;16.64;47.18;100394.59;1703288;84;21028;-57
2022/06/15 00:44:26;;;;;;;4.62;1.32;;;;;;;16.60;47.29;100397.00;1683581;84;21079;-58
2022/06/15 00:47:12;;;;;;;2.90;1.05;;;;;;;16.56;47.37;100393.02;1703515;84;21055;-58
2022/06/15 00:49:50;;;;;;;2.80;1.25;;;;;;;16.54;47.51;100399.87;1703178;84;21028;-59
2022/06/15 00:52:32;;;;;;;5.33;1.20;;;;;;;16.53;47.58;100392.11;1683850;84;21076;-57
2022/06/15 00:54:59;;;;;;;2.65;1.12;;;;;;;16.51;47.69;100393.42;1703556;84;21071;-59
2022/06/15 00:57:29;;;;;;;2.95;1.10;;;;;;;16.49;47.84;100388.13;1703395;84;21072;-58
2022/06/15 01:00:01;;;;;;;3.70;1.30;;;;;;;16.48;47.81;100386.45;1703160;84;21083;-59
2022/06/15 01:02:36;;;;;;;2.92;1.27;;;;;;;16.47;47.91;100386.14;1703069;84;21468;-59
2022/06/15 01:05:12;;;;;;;1.87;1.02;;;;;;;16.40;48.13;100384.86;1703321;84;21052;-59
2022/06/15 01:07:59;;;;;;;5.87;1.52;;;;;;;16.37;48.18;100383.95;1703129;84;21083;-58
2022/06/15 01:10:46;;;;;;;;;;;;;;;16.37;48.30;100386.72;1705651;84;21484;-61
2022/06/15 01:13:35;;;;;;;3.67;1.35;;;;;;;16.33;48.41;100395.19;1703131;84;20169;-58
2022/06/15 01:16:25;;;;;;;2.70;1.20;;;;;;;16.30;48.56;100398.95;1683255;84;21071;-59
2022/06/15 01:19:15;;;;;;;5.10;1.20;;;;;;;16.24;48.67;100396.56;1702775;84;21087;-59
2022/06/15 01:21:50;;;;;;;6.60;1.35;;;;;;;16.24;48.88;100401.25;1703198;84;21476;-58
2022/06/15 01:25:00;;;;;;;2.05;1.20;;;;;;;16.15;49.05;100404.34;1703005;84;21027;-58
2022/06/15 01:27:53;;;;;;;5.85;1.20;;;;;;;16.07;49.31;100406.05;1703121;84;21471;-59
2022/06/15 01:30:40;;;;;;;5.90;1.20;;;;;;;16.02;49.57;100407.29;1703472;84;21052;-59
2022/06/15 01:33:53;;;;;;;2.72;1.10;;;;;;;15.99;49.79;100409.14;1703181;84;21076;-59
2022/06/15 01:36:46;;;;;;;1.45;0.95;;;;;;;15.93;49.99;100411.45;1712628;82;21039;-58
2022/06/15 01:39:33;;;;;;;3.47;1.22;;;;;;;15.89;50.19;100410.23;1723662;82;21462;-59
2022/06/15 01:42:16;;;;;;;2.70;1.27;;;;;;;15.89;50.29;100417.68;1723630;82;21003;-58
2022/06/15 01:44:50;;;;;;;3.95;1.30;;;;;;;15.88;50.54;100414.07;1723775;83;21039;-57
2022/06/15 01:47:22;;;;;;;3.58;1.30;;;;;;;15.88;50.55;100409.92;1723669;83;21455;-59
2022/06/15 01:50:05;;;;;;;4.95;1.40;;;;;;;15.84;50.69;100421.14;1701471;83;21043;-58
2022/06/15 01:52:41;;;;;;;3.52;1.50;;;;;;;15.75;50.93;100414.23;1723490;83;21055;-59
2022/06/15 01:55:25;;;;;;;4.35;1.50;;;;;;;15.70;51.12;100415.47;1702840;83;21546;-57
2022/06/15 01:57:56;;;;;;;4.37;1.75;;;;;;;15.67;51.28;100415.93;1700832;83;21031;-58
2022/06/15 02:00:26;;;;;;;5.62;1.80;;;;;;;15.66;51.41;100423.37;1723606;83;21106;-59
2022/06/15 02:03:04;;;;;;;3.72;1.65;;;;;;;15.64;51.45;100417.77;1725106;83;21039;-57
2022/06/15 02:05:46;;;;;;;4.05;1.67;;;;;;;15.64;51.56;100424.68;1723760;82;21082;-58
2022/06/15 02:08:51;;;;;;;5.00;1.77;;;;;;;15.59;51.59;100423.95;1723627;83;21071;-58
2022/06/15 02:11:34;;;;;;;6.08;1.50;;;;;;;15.58;51.77;100425.57;1723700;83;21061;-57
2022/06/15 02:14:16;;;;;;;3.02;1.42;;;;;;;15.57;51.92;100434.89;1723856;82;21043;-58
2022/06/15 02:16:58;;;;;;;4.67;1.60;;;;;;;15.57;52.03;100430.75;1723314;83;21066;-58
2022/06/15 02:19:34;;;;;;;4.28;1.60;;;;;;;15.53;52.15;100433.97;1701963;83;21036;-59
2022/06/15 02:22:07;;;;;;;4.87;2.10;;;;;;;15.50;52.35;100438.58;1723840;82;21023;-58
2022/06/15 02:24:37;;;;;;;5.53;2.10;;;;;;;15.47;52.48;100440.41;1723485;83;21054;-58
2022/06/15 02:27:07;;;;;;;6.33;2.00;;;;;;;15.43;52.77;100448.84;1723784;83;21082;-58
2022/06/15 02:29:38;;;;;;;5.28;2.30;;;;;;;15.41;52.94;100451.53;1673258;86;21097;-59
2022/06/15 02:32:10;;;;;;;6.03;2.20;;;;;;;15.31;53.25;100449.29;1673356;86;21082;-59
2022/06/15 02:34:40;;;;;;;4.10;2.15;;;;;;;15.28;53.34;100444.22;1673634;86;21046;-58
2022/06/15 02:37:10;;;;;;;5.78;1.95;;;;;;;15.29;53.47;100451.97;1667494;86;21050;-59
2022/06/15 02:39:41;;;;;;;6.35;2.02;;;;;;;15.25;53.56;100446.59;1664640;86;21871;-58
2022/06/15 02:42:30;;;;;;;6.25;2.10;;;;;;;15.24;53.65;100448.52;1664486;86;21050;-58
2022/06/15 02:45:09;;;;;;;6.37;2.20;;;;;;;15.28;53.69;100457.19;1664397;86;21027;-58
2022/06/15 02:47:41;;;;;;;6.85;2.10;;;;;;;15.27;53.81;100448.59;1668673;83;21497;-59
2022/06/15 02:50:14;;;;;;;5.17;1.82;;;;;;;15.25;53.99;100450.73;1719228;83;21499;-58
2022/06/15 02:52:48;;;;;;;4.15;2.10;;;;;;;15.26;54.02;100450.51;1676541;83;21018;-59
2022/06/15 02:55:17;;;;;;;4.30;1.85;;;;;;;15.24;54.10;100451.27;1656930;86;21047;-58
2022/06/15 02:57:54;;;;;;;5.05;1.80;;;;;;;15.25;54.29;100450.20;1719352;83;21070;-58
2022/06/15 03:00:25;;;;;;;4.53;1.90;;;;;;;15.22;54.58;100454.27;1718720;83;21015;-58
2022/06/15 03:02:55;;;;;;;3.42;1.70;;;;;;;15.18;54.67;100457.70;1719235;83;21023;-58
2022/06/15 03:05:24;;;;;;;4.47;2.00;;;;;;;15.17;54.74;100465.67;1719203;83;21475;-59
2022/06/15 03:07:53;;;;;;;4.78;1.50;;;;;;;15.18;54.78;100459.92;1719237;83;21015;-58
2022/06/15 03:10:23;;;;;;;5.47;1.80;;;;;;;15.20;54.89;100459.70;1719214;83;21443;-59
2022/06/15 03:12:53;;;;;;;5.12;2.00;;;;;;;15.21;54.90;100462.23;1719219;82;21094;-57
2022/06/15 03:15:24;;;;;;;3.45;1.80;;;;;;;15.20;55.00;100454.17;1719271;83;21067;-58
2022/06/15 03:17:56;;;;;;;4.90;1.70;;;;;;;15.14;55.14;100457.84;1719147;83;21015;-57
2022/06/15 03:20:26;;;;;;;2.25;1.30;;;;;;;15.10;55.34;100463.50;1719274;83;21102;-58
2022/06/15 03:22:57;;;;;;;6.33;1.50;;;;;;;15.07;55.49;100462.05;1699320;83;21122;-59
2022/06/15 03:25:26;;;;;;;4.08;1.70;;;;;;;15.05;55.67;100456.44;1719395;83;21038;-58
2022/06/15 03:27:58;;;;;;;3.20;1.70;;;;;;;15.04;55.76;100463.03;1719471;83;21062;-57
2022/06/15 03:30:30;;;;;;;5.85;1.67;;;;;;;15.06;55.91;100468.63;1719329;83;21066;-59
2022/06/15 03:33:02;;;;;;;4.22;1.60;;;;;;;15.07;56.16;100468.09;1719074;83;21502;-58
2022/06/15 03:35:36;;;;;;;3.85;1.75;;;;;;;15.09;56.12;100472.86;1719317;83;21046;-58
2022/06/15 03:38:08;;;;;;;3.75;1.32;;;;;;;15.07;55.98;100481.89;1714355;83;21114;-58
2022/06/15 03:40:45;;;;;;;3.08;1.50;;;;;;;15.07;56.07;100477.75;1694898;84;21019;-59
2022/06/15 03:43:14;;;;;;;3.10;1.27;;;;;;;15.07;55.97;100475.00;1714373;84;21090;-58
2022/06/15 03:45:45;;;;;;;4.33;1.40;;;;;;;15.07;56.08;100481.89;1694767;84;21023;-58
2022/06/15 03:48:14;;;;;;;5.40;1.50;;;;;;;15.08;56.10;100486.34;1714498;84;21490;-57
2022/06/15 03:50:47;;;;;;;4.85;1.50;;;;;;;15.11;56.08;100485.89;1714006;84;21030;-59
2022/06/15 03:53:17;;;;;;;4.53;1.47;;;;;;;15.13;55.96;100486.52;1689010;84;21082;-58
2022/06/15 03:55:46;;;;;;;3.92;1.50;;;;;;;15.16;56.02;100480.55;1714136;84;21031;-59
2022/06/15 03:58:19;;;;;;;3.50;1.60;;;;;;;15.21;56.08;100488.99;1714474;84;21459;-58
2022/06/15 04:00:50;;;;;;;3.20;1.80;;;;;;;15.26;55.92;100491.07;1714463;84;21086;-59
2022/06/15 04:03:20;;;;;;;5.20;1.65;;;;;;;15.28;55.87;100488.93;1714553;84;21074;-59
2022/06/15 04:05:56;;;;;;;3.12;1.40;;;;;;;15.31;55.76;100497.60;1714162;83;21487;-58
2022/06/15 04:08:34;;;;;;;4.58;1.65;;;;;;;15.36;55.58;100501.06;1714335;83;21508;-60
2022/06/15 04:14:04;;;;;;;6.40;1.67;;;;;;;15.42;55.51;100490.49;1714195;84;21467;-59
2022/06/15 04:16:35;;;;;;;5.05;1.85;;;;;;;15.48;55.40;100497.33;1694787;84;21032;-60
2022/06/15 04:19:08;;;;;;;6.12;2.00;;;;;;;15.46;55.47;100500.86;1714633;84;21098;-60
2022/06/15 04:21:41;;;;;;;3.27;1.75;;;;;;;15.46;55.64;100498.09;1714334;84;21050;-58
2022/06/15 04:24:11;;;;;;;4.20;2.17;;;;;;;15.51;55.68;100501.55;1694346;84;21063;-58
2022/06/15 04:26:44;;;;;;;5.90;2.30;;;;;;;15.58;55.55;100502.90;1714197;84;21098;-58
2022/06/15 04:29:16;;;;;;;3.72;2.00;;;;;;;15.63;55.44;100501.71;1634877;88;21105;-58
2022/06/15 04:31:46;;;;;;;5.42;2.02;;;;;;;15.65;55.39;100498.19;1613885;88;21089;-59
2022/06/15 04:34:18;;;;;;;3.85;2.12;;;;;;;15.69;55.40;100500.26;1635178;88;21054;-59
2022/06/15 04:36:47;;;;;;;4.92;2.00;;;;;;;15.75;55.37;100497.12;1613628;88;21117;-59
2022/06/15 04:39:17;;;;;;;5.28;2.05;;;;;;;15.82;55.26;100506.17;1634950;87;21076;-58
2022/06/15 04:41:48;;;;;;;4.10;1.90;;;;;;;15.88;55.15;100504.41;1634945;86;21109;-59
2022/06/15 04:44:20;;;;;;;7.87;1.95;;;;;;;15.91;54.98;100503.41;1634915;88;21515;-59
2022/06/15 04:46:51;;;;;;;5.42;1.87;;;;;;;15.93;54.85;100510.09;1613748;88;21041;-59
2022/06/15 04:49:23;;;;;;;4.60;2.00;;;;;;;15.96;54.89;100512.40;1634910;88;21026;-60
2022/06/15 04:51:54;;;;;;;5.45;1.90;;;;;;;16.03;54.81;100508.48;1635100;88;21510;-59
2022/06/15 04:54:23;;;;;;;2.80;1.77;;;;;;;16.09;54.74;100503.41;1690478;84;21154;-60
2022/06/15 04:56:56;;;;;;;8.33;1.95;;;;;;;16.20;54.51;100506.47;1714413;84;21043;-60
2022/06/15 04:59:26;;;;;;;5.67;2.17;;;;;;;16.33;54.45;100511.33;1708132;84;21046;-58
2022/06/15 05:01:55;;;;;;;6.05;2.83;;;;;;;16.53;54.04;100506.06;1714326;82;21525;-60
2022/06/15 05:04:28;;;;;;;7.00;2.40;;;;;;;16.75;53.55;100509.48;1714327;84;21047;-57
2022/06/15 05:06:59;;;;;;;4.40;1.98;;;;;;;17.07;52.95;100512.01;1714461;84;21482;-58
2022/06/15 05:09:28;;;;;;;4.45;2.30;;;;;;;17.43;51.62;100517.34;1708083;84;21074;-59
2022/06/15 05:11:59;;;;;;;4.40;2.10;;;;;;;17.66;50.89;100510.16;1714383;83;21074;-59
2022/06/15 05:14:28;;;;;;;7.37;2.25;;;;;;;17.83;50.39;100511.14;1694149;84;21142;-59
2022/06/15 05:17:00;;;;;;;4.72;1.92;;;;;;;18.06;50.26;100524.97;1714342;84;21027;-59
2022/06/15 05:19:32;;;;;;;7.92;2.67;;;;;;;18.28;49.40;100510.47;1656291;86;21150;-58
2022/06/15 05:22:04;;;;;;;6.85;2.17;;;;;;;18.42;48.94;100517.97;1656485;86;21554;-60
2022/06/15 05:24:35;;;;;;;5.10;2.45;;;;;;;18.57;48.66;100521.89;1634631;86;21050;-58
2022/06/15 05:27:07;;;;;;;6.35;2.22;;;;;;;18.74;48.35;100525.29;1656282;86;21553;-59
2022/06/15 05:29:39;;;;;;;3.92;1.82;;;;;;;18.92;47.38;100525.11;1656368;86;21625;-59
2022/06/15 05:32:11;;;;;;;5.08;1.57;;;;;;;19.06;47.22;100522.86;1655192;86;21919;-58
2022/06/15 05:34:41;;;;;;;3.37;1.77;;;;;;;19.27;46.87;100523.50;1656242;86;21071;-58
2022/06/15 05:37:11;;;;;;;4.15;1.55;;;;;;;19.53;46.13;100517.33;1654293;83;21046;-58
2022/06/15 05:39:41;;;;;;;10.68;2.90;;;;;;;19.74;45.55;100513.47;1729096;82;21667;-58
2022/06/15 05:42:12;;;;;;;6.30;1.90;;;;;;;19.90;45.28;100510.66;1728946;83;21177;-58
2022/06/15 05:44:49;;;;;;;3.27;1.50;;;;;;;20.11;44.88;100512.32;1728785;83;21022;-59
2022/06/15 05:47:18;;;;;;;3.77;1.57;;;;;;;20.29;43.93;100513.42;1722445;82;21047;-58
2022/06/15 05:50:07;;;;;;;4.17;1.50;;;;;;;20.43;43.18;100510.56;1702490;83;21110;-59
2022/06/15 05:52:41;;;;;;;4.47;1.77;;;;;;;20.60;42.84;100506.86;1728218;83;21015;-58
2022/06/15 05:55:14;;;;;;;3.65;1.52;;;;;;;20.69;42.25;100505.29;1729180;82;21430;-58
2022/06/15 05:57:43;;;;;;;5.20;1.50;;;;;;;20.66;42.40;100508.59;1729144;83;21002;-58
2022/06/15 06:00:18;;;;;;;9.65;1.98;;;;;;;20.77;42.07;100510.39;1728917;82;21094;-59
2022/06/15 06:02:47;;;;;;;9.08;3.85;;;;;;;20.97;41.87;100513.41;1729167;83;21023;-58
2022/06/15 06:05:17;;;;;;;7.08;1.80;;;;;;;21.34;41.10;100518.23;1729230;83;21003;-58
2022/06/15 06:07:48;;;;;;;5.12;1.45;;;;;;;21.68;40.49;100518.80;1729320;83;21078;-57
2022/06/15 06:10:20;;;;;;;3.87;1.45;;;;;;;21.82;39.33;100515.83;1728929;82;21034;-58
2022/06/15 06:12:51;;;;;;;6.60;1.57;;;;;;;21.88;38.66;100516.70;1729060;82;20995;-58
2022/06/15 06:15:22;;;;;;;5.65;1.55;;;;;;;21.97;38.71;100512.29;1729003;83;21105;-58
2022/06/15 06:17:52;;;;;;;3.58;1.30;;;;;;;22.12;38.59;100509.64;1729319;83;21082;-58
2022/06/15 06:20:22;;;;;;;8.60;2.40;;;;;;;22.34;38.56;100511.70;1729116;83;21077;-58
2022/06/15 06:22:51;;;;;;;7.37;2.17;;;;;;;22.61;37.98;100520.45;1728865;83;21518;-59
2022/06/15 06:25:21;;;;;;;4.90;1.47;;;;;;;22.83;37.52;100513.31;1729139;83;21027;-59
2022/06/15 06:27:50;;;;;;;5.17;1.70;;;;;;;22.84;36.91;100520.58;1728905;83;21066;-59
2022/06/15 06:30:22;;;;;;;4.92;1.80;;;;;;;22.78;37.13;100508.52;1728826;82;21042;-58
2022/06/15 06:32:51;;;;;;;6.97;4.12;;;;;;;22.80;36.83;100522.21;1728862;83;21157;-59
2022/06/15 06:35:22;;;;;;;7.83;2.10;;;;;;;22.77;36.63;100520.25;1728941;82;21023;-59
2022/06/15 06:37:50;;;;;;;4.50;1.72;;;;;;;22.73;36.65;100521.05;1726290;82;21086;-59
2022/06/15 06:40:25;;;;;;;3.47;1.60;;;;;;;22.73;36.73;100512.66;1723594;83;21502;-58
2022/06/15 06:42:53;;;;;;;6.12;1.98;;;;;;;22.78;36.59;100516.90;1701306;83;21015;-59
2022/06/15 06:45:23;;;;;;;5.03;1.70;;;;;;;22.91;36.56;100509.41;1723398;82;21443;-59
2022/06/15 06:47:56;;;;;;;4.25;1.27;;;;;;;23.16;35.66;100516.16;1723421;82;21458;-59
2022/06/15 06:50:28;;;;;;;4.47;1.67;;;;;;;23.26;35.40;100524.55;1723660;82;21090;-64
2022/06/15 06:52:57;;;;;;;6.37;1.50;;;;;;;23.42;35.07;100524.02;1723137;82;21592;-59
2022/06/15 06:55:28;;;;;;;4.15;1.50;;;;;;;23.43;35.23;100514.52;1723554;83;21058;-59
2022/06/15 06:57:59;;;;;;;4.47;1.70;;;;;;;23.56;34.85;100519.01;1700697;83;21043;-58
2022/06/15 07:00:30;;;;;;;6.62;1.67;;;;;;;23.70;34.90;100518.71;1723557;82;21066;-64
2022/06/15 07:03:01;;;;;;;3.25;1.70;;;;;;;23.88;34.65;100526.23;1723459;82;21027;-59
2022/06/15 07:05:35;;;;;;;4.87;1.65;;;;;;;24.06;34.45;100522.86;1723577;82;21026;-57
2022/06/15 07:08:08;;;;;;;2.52;1.70;;;;;;;24.20;33.97;100515.54;1723367;83;21542;-58
2022/06/15 07:10:38;;;;;;;4.70;1.80;;;;;;;24.19;33.79;100519.47;1701509;83;21035;-58
2022/06/15 07:13:07;;;;;;;5.92;2.10;;;;;;;24.13;33.95;100512.77;1723410;82;21521;-59
2022/06/15 07:15:37;;;;;;;4.53;1.67;;;;;;;23.95;34.32;100525.38;1723346;83;21545;-60
2022/06/15 07:18:07;;;;;;;6.17;1.80;;;;;;;23.87;34.58;100523.16;1723516;83;20991;-58
2022/06/15 07:20:40;;;;;;;2.40;1.47;;;;;;;23.83;34.65;100515.89;1723507;83;21039;-60
2022/06/15 07:23:11;;;;;;;4.50;1.52;;;;;;;23.86;34.80;100515.33;1723774;82;21027;-58
2022/06/15 07:25:40;;;;;;;3.62;1.77;;;;;;;24.11;34.12;100510.25;1723676;83;21038;-58
2022/06/15 07:28:09;;;;;;;4.03;1.25;;;;;;;24.28;33.64;100523.38;1723639;83;21031;-58
2022/06/15 07:30:39;;;;;;;4.15;1.50;;;;;;;24.32;32.59;100524.48;1725307;82;21031;-58
2022/06/15 07:33:08;;;;;;;5.00;1.30;;;;;;;24.32;32.36;100514.69;1723974;82;21086;-59
2022/06/15 07:35:39;;;;;;;2.72;1.50;;;;;;;24.49;32.19;100514.89;1723525;83;21043;-58
2022/06/15 07:38:09;;;;;;;2.47;1.10;;;;;;;24.61;31.87;100520.44;1699642;83;21083;-59
2022/06/15 07:40:40;;;;;;;5.03;1.30;;;;;;;24.77;31.86;100510.01;1725656;83;21039;-58
2022/06/15 07:43:12;;;;;;;4.53;1.32;;;;;;;24.81;31.71;100508.87;1726408;83;21450;-58
2022/06/15 07:45:41;;;;;;;5.85;1.40;;;;;;;24.77;31.80;100498.80;1726378;83;21475;-60
2022/06/15 07:50:59;;;;;;;4.25;1.10;;;;;;;25.06;31.42;100512.09;1726656;83;21019;-59
2022/06/15 07:53:28;;;;;;;6.83;1.10;;;;;;;25.12;30.78;100512.33;1726389;83;21007;-58
2022/06/15 07:55:58;;;;;;;4.65;1.25;;;;;;;25.08;29.31;100518.25;1726687;83;21070;-59
2022/06/15 07:58:26;;;;;;;4.12;1.00;;;;;;;24.94;29.74;100515.23;1726406;83;21034;-59
2022/06/15 08:00:57;;;;;;;6.45;1.27;;;;;;;24.81;29.67;100504.66;1726418;83;21038;-58
2022/06/15 08:03:26;;;;;;;14.85;2.30;;;;;;;24.72;29.84;100514.80;1726369;83;21094;-60
2022/06/15 08:05:57;;;;;;;3.08;1.00;;;;;;;24.69;30.14;100509.19;1726397;83;21036;-58
2022/06/15 08:08:26;;;;;;;3.08;1.30;;;;;;;24.87;30.10;100507.70;1726324;83;21048;-61
2022/06/15 08:10:55;;;;;;;2.10;1.10;;;;;;;25.02;29.82;100511.84;1726358;82;21031;-59
2022/06/15 08:13:24;;;;;;;4.50;1.12;;;;;;;24.97;29.79;100500.63;1726248;83;21090;-59
2022/06/15 08:15:53;;;;;;;1.60;0.90;;;;;;;24.96;29.35;100510.17;1726336;82;21078;-57
2022/06/15 08:18:26;;;;;;;5.85;1.37;;;;;;;24.96;29.20;100498.39;1726522;83;21007;-58
2022/06/15 08:21:00;;;;;;;5.45;1.40;;;;;;;25.11;29.55;100499.44;1726468;82;21513;-59
2022/06/15 08:23:32;;;;;;;2.42;1.20;;;;;;;25.25;29.20;100498.48;1726366;82;21066;-59
2022/06/15 08:26:05;;;;;;;3.85;1.30;;;;;;;25.24;29.41;100498.78;1726587;83;21003;-59
2022/06/15 08:28:38;;;;;;;3.08;1.10;;;;;;;25.17;29.80;100494.91;1694481;83;21095;-59
2022/06/15 08:31:07;;;;;;;6.58;1.77;;;;;;;25.35;29.62;100493.92;1726432;83;21082;-58
2022/06/15 08:33:38;;;;;;;5.15;1.15;;;;;;;25.60;29.34;100508.58;1726489;82;21003;-58
2022/06/15 08:36:09;;;;;;;3.65;1.30;;;;;;;25.73;28.10;100504.28;1726593;82;21082;-59
2022/06/15 08:38:38;;;;;;;6.25;1.52;;;;;;;25.68;28.04;100495.91;1718692;82;21066;-59
2022/06/15 08:41:55;;;;;;;3.58;1.40;;;;;;;25.71;28.23;100488.30;1697730;83;21119;-62
2022/06/15 08:45:00;;;;;;;3.70;1.20;;;;;;;25.83;28.62;100492.11;1703747;83;21074;-62
2022/06/15 08:47:53;;;;;;;3.72;1.20;;;;;;;26.03;28.36;100496.70;1723609;83;21078;-60
2022/06/15 08:50:28;;;;;;;2.92;0.90;;;;;;;25.91;28.39;100502.13;1723253;83;21039;-60
2022/06/15 08:53:12;;;;;;;2.05;0.82;;;;;;;25.48;29.03;100484.28;1723228;83;21078;-59
2022/06/15 08:55:53;;;;;;;5.05;1.30;;;;;;;25.15;29.49;100499.13;1723329;83;21158;-59
2022/06/15 08:58:49;;;;;;;2.92;0.98;;;;;;;24.96;29.72;100492.78;1723344;83;21034;-58
2022/06/15 09:01:38;;;;;;;1.90;0.88;;;;;;;24.92;29.51;100495.89;1723166;83;21032;-58
2022/06/15 09:04:37;;;;;;;4.20;1.00;;;;;;;24.85;29.71;100499.59;1723161;83;21082;-57
2022/06/15 09:07:27;;;;;;;2.83;1.00;;;;;;;24.60;29.62;100502.51;1723376;83;21126;-59
2022/06/15 09:10:32;;;;;;;4.12;1.40;;;;;;;24.16;30.04;100499.59;1723033;83;21031;-60
2022/06/15 09:13:38;;;;;;;9.13;1.50;;;;;;;23.84;31.13;100500.78;1723110;83;21043;-61
2022/06/15 09:16:16;;;;;;;3.00;1.00;;;;;;;23.49;31.31;100500.24;1718592;83;21540;-59
2022/06/15 09:19:01;;;;;;;3.45;0.93;;;;;;;23.40;31.66;100501.89;1722709;83;21035;-59
2022/06/15 09:21:41;;;;;;;1.87;1.00;;;;;;;23.54;33.23;100498.00;1726951;83;21035;-61
2022/06/15 09:24:34;;;;;;;1.98;1.00;;;;;;;23.58;32.33;100479.00;1722927;83;21051;-63
2022/06/15 09:27:11;;;;;;;2.70;1.30;;;;;;;23.65;31.24;100506.13;1713007;81;20999;-62
2022/06/15 09:29:48;;;;;;;3.37;0.88;;;;;;;23.62;30.94;100491.87;1691251;84;22012;-57
2022/06/15 09:32:32;;;;;;;1.72;0.80;;;;;;;23.60;31.82;100478.72;1607369;89;21125;-60
2022/06/15 09:35:24;;;;;;;2.05;1.07;;;;;;;23.64;30.68;100486.27;1610488;86;21137;-60
2022/06/15 09:38:07;;;;;;;1.98;1.20;;;;;;;23.70;31.17;100485.14;1610886;87;21030;-59
2022/06/15 09:41:00;;;;;;;5.72;1.10;;;;;;;23.74;30.97;100474.78;1570614;89;21149;-60
2022/06/15 09:43:59;;;;;;;5.70;1.17;;;;;;;23.69;31.20;100483.46;1579060;91;21074;-59
2022/06/15 09:46:56;;;;;;;5.50;1.12;;;;;;;23.82;30.55;100483.99;1608562;89;21038;-59
2022/06/15 09:49:48;;;;;;;2.67;1.05;;;;;;;23.86;30.26;100466.91;1585314;88;21105;-59
2022/06/15 09:53:41;;;;;;;2.70;1.10;;;;;;;23.97;30.48;100482.55;1675202;84;21671;-59
2022/06/15 09:56:13;;;;;;;2.20;0.93;;;;;;;23.92;30.75;100475.57;1685467;84;21110;-59
2022/06/15 09:59:04;;;;;;;3.70;0.90;;;;;;;23.46;31.01;100489.62;1704695;81;21033;-59
2022/06/15 10:01:45;;;;;;;4.62;1.10;;;;;;;23.25;31.15;100489.31;1706746;82;21074;-59
2022/06/15 10:04:24;;;;;;;2.67;0.80;;;;;;;23.23;31.35;100491.55;1740871;81;21438;-58
2022/06/15 10:07:20;;;;;;;1.72;0.70;;;;;;;23.28;31.46;100482.60;1625101;84;21086;-58
2022/06/15 10:09:52;;;;;;;2.05;0.90;;;;;;;23.36;31.28;100483.44;1731445;82;21655;-60
2022/06/15 10:12:58;;;;;;;1.22;0.72;;;;;;;23.44;30.96;100476.47;1749126;81;21099;-61
2022/06/15 10:15:44;;;;;;;4.37;0.98;;;;;;;23.45;30.01;100467.52;1741789;81;21022;-59
2022/06/15 10:18:36;;;;;;;4.90;3.17;;;;;;;23.54;30.38;100475.06;1727881;82;21051;-58
2022/06/15 10:21:24;;;;;;;4.05;1.20;;;;;;;23.64;30.57;100463.89;1725074;83;20995;-58
2022/06/15 10:24:08;;;;;;;5.55;1.67;;;;;;;23.55;30.75;100472.58;1725501;83;21074;-59
2022/06/15 10:26:45;;;;;;;7.80;1.52;;;;;;;23.30;31.10;100474.77;1726207;82;21542;-60
2022/06/15 10:29:23;;;;;;;2.72;0.93;;;;;;;23.26;31.38;100477.02;1725872;82;21050;-59
2022/06/15 10:32:14;;;;;;;2.85;0.90;;;;;;;23.29;31.11;100474.50;1725907;83;21055;-60
2022/06/15 10:34:51;;;;;;;4.22;0.93;;;;;;;23.37;30.19;100478.69;1743533;81;21019;-59
2022/06/15 10:37:31;;;;;;;3.45;1.07;;;;;;;23.44;29.84;100468.64;1748746;82;21039;-60
2022/06/15 10:40:08;;;;;;;1.65;0.98;;;;;;;23.52;30.44;100456.33;1746317;82;21144;-61
2022/06/15 10:42:42;;;;;;;4.03;1.07;;;;;;;23.63;30.34;100460.81;1725425;82;21047;-60
2022/06/15 10:45:36;;;;;;;4.25;1.00;;;;;;;23.72;30.47;100468.06;1746166;82;21486;-62
2022/06/15 10:48:20;;;;;;;2.20;0.98;;;;;;;23.78;30.33;100473.09;1746281;82;21030;-60
2022/06/15 10:51:08;;;;;;;2.25;0.95;;;;;;;23.84;29.34;100456.00;1746171;82;21427;-61
2022/06/15 10:53:46;;;;;;;3.65;1.15;;;;;;;23.83;29.12;100452.92;1745929;82;21431;-60
2022/06/15 11:02:32;;;;;;;1.50;0.95;;;;;;;23.63;29.66;100452.42;1752909;82;21033;-62
2022/06/15 11:05:12;;;;;;;3.42;0.95;;;;;;;23.49;30.17;100445.70;1752757;82;21026;-59
2022/06/15 11:07:51;;;;;;;4.62;0.78;;;;;;;23.41;30.04;100442.08;1694009;85;21464;-59
2022/06/15 11:10:37;;;;;;;3.72;1.10;;;;;;;23.39;29.75;100449.31;1691782;85;21016;-61
2022/06/15 11:13:28;;;;;;;4.62;0.90;;;;;;;23.38;29.67;100451.84;1693853;85;21480;-60
2022/06/15 11:19:07;;;;;;;3.80;1.35;;;;;;;23.32;30.41;100438.98;1693620;85;20957;-62
2022/06/15 11:22:10;;;;;;;2.17;1.00;;;;;;;23.39;30.64;100441.48;1672141;85;21051;-62
2022/06/15 11:25:09;;;;;;;3.42;1.00;;;;;;;23.44;30.32;100449.91;1694722;82;21068;-61
2022/06/15 11:28:00;;;;;;;4.25;1.32;;;;;;;23.44;30.41;100446.27;1752643;82;21477;-63
2022/06/15 11:30:35;;;;;;;4.85;1.20;;;;;;;23.36;30.42;100451.84;1752679;82;21045;-62
2022/06/15 11:33:26;;;;;;;3.27;0.95;;;;;;;23.14;30.67;100452.69;1694463;83;21035;-63
2022/06/15 11:36:11;;;;;;;2.75;0.95;;;;;;;23.00;31.00;100454.65;1678306;85;21064;-61
2022/06/15 11:39:00;;;;;;;2.17;0.90;;;;;;;22.97;31.04;100449.62;1662654;85;21146;-59
2022/06/15 11:41:54;;;;;;;4.65;1.55;;;;;;;22.96;31.11;100440.95;1692152;85;21132;-61
2022/06/15 11:44:36;;;;;;;3.45;0.93;;;;;;;22.98;31.01;100442.91;1680148;84;21057;-61
2022/06/15 11:47:33;;;;;;;3.35;0.90;;;;;;;23.06;30.71;100435.36;1692370;85;21054;-59
2022/06/15 11:50:30;;;;;;;2.77;1.20;;;;;;;23.09;30.20;100437.59;1692203;85;21086;-60
2022/06/15 11:53:20;;;;;;;3.83;2.10;;;;;;;23.11;30.62;100438.72;1669973;84;21090;-61
2022/06/15 11:55:58;;;;;;;4.15;1.20;;;;;;;23.15;30.52;100428.66;1692460;84;21277;-59
2022/06/15 11:58:53;;;;;;;3.62;0.95;;;;;;;23.15;30.91;100436.20;1692385;85;21111;-60
2022/06/15 12:01:42;;;;;;;7.05;1.37;;;;;;;23.18;30.58;100435.64;1691879;84;21138;-59
2022/06/15 12:04:53;;;;;;;3.50;0.98;;;;;;;23.23;30.23;100427.25;1692708;85;21086;-59
2022/06/15 12:07:40;;;;;;;2.00;1.22;;;;;;;23.24;30.25;100421.94;1692234;84;21067;-61
2022/06/15 12:10:34;;;;;;;2.50;1.17;;;;;;;23.33;30.37;100421.09;1692447;85;21012;-61
2022/06/15 12:13:14;;;;;;;3.70;0.90;;;;;;;23.39;30.56;100430.30;1692259;85;21053;-61
2022/06/15 12:15:47;;;;;;;1.45;0.95;;;;;;;23.44;30.42;100438.72;1692358;84;21039;-60
2022/06/15 12:18:52;;;;;;;4.20;1.30;;;;;;;23.40;29.82;100433.37;1688606;85;21069;-60
2022/06/15 12:21:51;;;;;;;1.35;0.82;;;;;;;23.37;29.57;100429.75;1686387;85;21104;-61
2022/06/15 12:24:38;;;;;;;6.47;1.25;;;;;;;23.30;29.32;100427.23;1653172;87;21442;-59
2022/06/15 12:27:24;;;;;;;3.62;1.02;;;;;;;23.27;29.82;100438.15;1652834;86;21077;-60